Terminal Aerodrome Forecast
Issued by NWS

Home | Current Version | Previous Version | Text Only | Print | Product List | Glossary On
Versions: 1 2 3 4 5 6 7 8 9 10 11 12
286
FTUS44 KSJT 230520
TAFBBD
TAF
KBBD 230520Z 2306/2406 VRB05KT P6SM SKC
     FM231700 22012G18KT P6SM SKC
      AMD NOT SKED=

USA.gov is the U.S. government's official web portal to all federal, state and local government web resources and services.